sensor_id;sensor_type;location;lat;lon;timestamp;P1;durP1;ratioP1;P2;durP2;ratioP2
54845;SDS011;53889;50.084;8.646;2023-08-30T00:00:56;8.23;;;3.72;;
54845;SDS011;53889;50.084;8.646;2023-08-30T00:03:23;5.45;;;3.40;;
54845;SDS011;53889;50.084;8.646;2023-08-30T00:05:50;6.55;;;3.53;;
54845;SDS011;53889;50.084;8.646;2023-08-30T00:08:17;6.43;;;3.78;;
54845;SDS011;53889;50.084;8.646;2023-08-30T00:10:46;4.65;;;3.25;;
54845;SDS011;53889;50.084;8.646;2023-08-30T00:13:13;4.93;;;3.10;;
54845;SDS011;53889;50.084;8.646;2023-08-30T00:15:40;7.18;;;4.05;;
54845;SDS011;53889;50.084;8.646;2023-08-30T00:18:07;7.50;;;3.92;;
54845;SDS011;53889;50.084;8.646;2023-08-30T00:20:34;7.15;;;3.75;;
54845;SDS011;53889;50.084;8.646;2023-08-30T00:23:00;5.63;;;3.85;;
54845;SDS011;53889;50.084;8.646;2023-08-30T00:25:28;6.63;;;3.47;;
54845;SDS011;53889;50.084;8.646;2023-08-30T00:27:56;5.55;;;3.40;;
54845;SDS011;53889;50.084;8.646;2023-08-30T00:30:23;5.43;;;3.40;;
54845;SDS011;53889;50.084;8.646;2023-08-30T00:32:49;6.80;;;3.53;;
54845;SDS011;53889;50.084;8.646;2023-08-30T00:35:16;4.70;;;3.80;;
54845;SDS011;53889;50.084;8.646;2023-08-30T00:37:43;6.22;;;4.10;;
54845;SDS011;53889;50.084;8.646;2023-08-30T00:40:10;10.30;;;4.90;;
54845;SDS011;53889;50.084;8.646;2023-08-30T00:42:37;5.70;;;4.18;;
54845;SDS011;53889;50.084;8.646;2023-08-30T00:45:07;7.43;;;4.60;;
54845;SDS011;53889;50.084;8.646;2023-08-30T00:47:34;5.90;;;4.13;;
54845;SDS011;53889;50.084;8.646;2023-08-30T00:50:02;7.45;;;4.40;;
54845;SDS011;53889;50.084;8.646;2023-08-30T00:52:29;7.30;;;4.68;;
54845;SDS011;53889;50.084;8.646;2023-08-30T00:54:56;5.80;;;4.28;;
54845;SDS011;53889;50.084;8.646;2023-08-30T00:57:22;8.57;;;4.65;;
54845;SDS011;53889;50.084;8.646;2023-08-30T00:59:49;5.32;;;3.67;;
54845;SDS011;53889;50.084;8.646;2023-08-30T01:02:19;6.65;;;4.15;;
54845;SDS011;53889;50.084;8.646;2023-08-30T01:04:45;6.40;;;4.45;;
54845;SDS011;53889;50.084;8.646;2023-08-30T01:07:13;6.97;;;4.13;;
54845;SDS011;53889;50.084;8.646;2023-08-30T01:09:39;6.00;;;4.00;;
54845;SDS011;53889;50.084;8.646;2023-08-30T01:12:08;7.28;;;3.80;;
54845;SDS011;53889;50.084;8.646;2023-08-30T01:14:38;5.30;;;3.90;;
54845;SDS011;53889;50.084;8.646;2023-08-30T01:17:10;6.30;;;4.28;;
54845;SDS011;53889;50.084;8.646;2023-08-30T01:19:45;5.93;;;4.40;;
54845;SDS011;53889;50.084;8.646;2023-08-30T01:22:16;6.82;;;4.68;;
54845;SDS011;53889;50.084;8.646;2023-08-30T01:24:49;6.25;;;3.90;;
54845;SDS011;53889;50.084;8.646;2023-08-30T01:27:25;6.45;;;4.20;;
54845;SDS011;53889;50.084;8.646;2023-08-30T01:29:57;5.82;;;3.50;;
54845;SDS011;53889;50.084;8.646;2023-08-30T01:32:25;6.65;;;3.80;;
54845;SDS011;53889;50.084;8.646;2023-08-30T01:34:53;5.93;;;3.85;;
54845;SDS011;53889;50.084;8.646;2023-08-30T01:37:21;5.95;;;4.13;;
54845;SDS011;53889;50.084;8.646;2023-08-30T01:39:48;7.72;;;4.00;;
54845;SDS011;53889;50.084;8.646;2023-08-30T01:42:16;5.55;;;4.38;;
54845;SDS011;53889;50.084;8.646;2023-08-30T01:44:48;8.77;;;4.40;;
54845;SDS011;53889;50.084;8.646;2023-08-30T01:47:16;8.20;;;3.90;;
54845;SDS011;53889;50.084;8.646;2023-08-30T01:49:44;7.00;;;3.70;;
54845;SDS011;53889;50.084;8.646;2023-08-30T01:52:12;7.85;;;4.15;;
54845;SDS011;53889;50.084;8.646;2023-08-30T01:54:39;6.05;;;3.97;;
54845;SDS011;53889;50.084;8.646;2023-08-30T01:57:08;7.65;;;4.03;;
54845;SDS011;53889;50.084;8.646;2023-08-30T01:59:35;5.72;;;3.95;;
54845;SDS011;53889;50.084;8.646;2023-08-30T02:02:03;4.75;;;3.88;;
54845;SDS011;53889;50.084;8.646;2023-08-30T02:04:30;5.93;;;3.75;;
54845;SDS011;53889;50.084;8.646;2023-08-30T02:06:57;6.53;;;3.53;;
54845;SDS011;53889;50.084;8.646;2023-08-30T02:09:29;5.00;;;3.92;;
54845;SDS011;53889;50.084;8.646;2023-08-30T02:12:02;6.78;;;4.20;;
54845;SDS011;53889;50.084;8.646;2023-08-30T02:14:33;10.70;;;4.32;;
54845;SDS011;53889;50.084;8.646;2023-08-30T02:17:02;6.82;;;4.10;;
54845;SDS011;53889;50.084;8.646;2023-08-30T02:19:29;6.40;;;4.28;;
54845;SDS011;53889;50.084;8.646;2023-08-30T02:21:57;7.50;;;4.28;;
54845;SDS011;53889;50.084;8.646;2023-08-30T02:24:23;8.50;;;4.50;;
54845;SDS011;53889;50.084;8.646;2023-08-30T02:26:50;7.32;;;4.65;;
54845;SDS011;53889;50.084;8.646;2023-08-30T02:29:17;5.65;;;4.47;;
54845;SDS011;53889;50.084;8.646;2023-08-30T02:31:43;5.00;;;3.97;;
54845;SDS011;53889;50.084;8.646;2023-08-30T02:34:11;6.63;;;4.40;;
54845;SDS011;53889;50.084;8.646;2023-08-30T02:36:38;7.10;;;4.80;;
54845;SDS011;53889;50.084;8.646;2023-08-30T02:39:05;6.57;;;4.13;;
54845;SDS011;53889;50.084;8.646;2023-08-30T02:41:32;8.10;;;4.43;;
54845;SDS011;53889;50.084;8.646;2023-08-30T02:43:59;7.00;;;4.60;;
54845;SDS011;53889;50.084;8.646;2023-08-30T02:46:26;6.97;;;4.30;;
54845;SDS011;53889;50.084;8.646;2023-08-30T02:48:52;7.40;;;4.03;;
54845;SDS011;53889;50.084;8.646;2023-08-30T02:51:21;6.50;;;4.18;;
54845;SDS011;53889;50.084;8.646;2023-08-30T02:53:48;7.32;;;3.95;;
54845;SDS011;53889;50.084;8.646;2023-08-30T02:56:14;6.40;;;3.88;;
54845;SDS011;53889;50.084;8.646;2023-08-30T02:58:41;6.05;;;4.95;;
54845;SDS011;53889;50.084;8.646;2023-08-30T03:01:08;7.93;;;4.20;;
54845;SDS011;53889;50.084;8.646;2023-08-30T03:03:35;6.07;;;3.88;;
54845;SDS011;53889;50.084;8.646;2023-08-30T03:06:01;5.15;;;3.95;;
54845;SDS011;53889;50.084;8.646;2023-08-30T03:08:30;7.35;;;3.95;;
54845;SDS011;53889;50.084;8.646;2023-08-30T03:11:07;7.50;;;3.80;;
54845;SDS011;53889;50.084;8.646;2023-08-30T03:13:34;6.97;;;4.07;;
54845;SDS011;53889;50.084;8.646;2023-08-30T03:16:02;7.10;;;4.03;;
54845;SDS011;53889;50.084;8.646;2023-08-30T03:18:36;7.38;;;4.47;;
54845;SDS011;53889;50.084;8.646;2023-08-30T03:21:02;7.95;;;4.25;;
54845;SDS011;53889;50.084;8.646;2023-08-30T03:23:31;6.82;;;4.18;;
54845;SDS011;53889;50.084;8.646;2023-08-30T03:25:58;6.53;;;5.00;;
54845;SDS011;53889;50.084;8.646;2023-08-30T03:28:24;8.95;;;4.93;;
54845;SDS011;53889;50.084;8.646;2023-08-30T03:30:52;6.95;;;4.65;;
54845;SDS011;53889;50.084;8.646;2023-08-30T03:33:19;8.75;;;5.60;;
54845;SDS011;53889;50.084;8.646;2023-08-30T03:35:45;8.32;;;4.90;;
54845;SDS011;53889;50.084;8.646;2023-08-30T03:38:12;9.55;;;4.60;;
54845;SDS011;53889;50.084;8.646;2023-08-30T03:40:40;6.45;;;4.80;;
54845;SDS011;53889;50.084;8.646;2023-08-30T03:43:07;9.50;;;5.90;;
54845;SDS011;53889;50.084;8.646;2023-08-30T03:45:34;10.63;;;5.60;;
54845;SDS011;53889;50.084;8.646;2023-08-30T03:48:02;8.73;;;5.63;;
54845;SDS011;53889;50.084;8.646;2023-08-30T03:50:29;8.52;;;5.10;;
54845;SDS011;53889;50.084;8.646;2023-08-30T03:52:55;7.80;;;4.93;;
54845;SDS011;53889;50.084;8.646;2023-08-30T03:55:22;8.68;;;5.30;;
54845;SDS011;53889;50.084;8.646;2023-08-30T03:57:50;7.30;;;5.35;;
54845;SDS011;53889;50.084;8.646;2023-08-30T04:00:17;8.20;;;5.40;;
54845;SDS011;53889;50.084;8.646;2023-08-30T04:02:43;7.70;;;5.05;;
54845;SDS011;53889;50.084;8.646;2023-08-30T04:05:10;8.85;;;4.70;;
54845;SDS011;53889;50.084;8.646;2023-08-30T04:07:37;6.55;;;5.03;;
54845;SDS011;53889;50.084;8.646;2023-08-30T04:10:04;5.60;;;4.35;;
54845;SDS011;53889;50.084;8.646;2023-08-30T04:12:32;6.82;;;4.82;;
54845;SDS011;53889;50.084;8.646;2023-08-30T04:15:00;8.02;;;5.50;;
54845;SDS011;53889;50.084;8.646;2023-08-30T04:17:28;7.57;;;4.93;;
54845;SDS011;53889;50.084;8.646;2023-08-30T04:19:54;6.43;;;4.60;;
54845;SDS011;53889;50.084;8.646;2023-08-30T04:22:21;6.13;;;4.75;;
54845;SDS011;53889;50.084;8.646;2023-08-30T04:24:48;9.30;;;5.22;;
54845;SDS011;53889;50.084;8.646;2023-08-30T04:27:15;10.05;;;5.80;;
54845;SDS011;53889;50.084;8.646;2023-08-30T04:29:42;8.95;;;5.03;;
54845;SDS011;53889;50.084;8.646;2023-08-30T04:32:11;9.30;;;4.90;;
54845;SDS011;53889;50.084;8.646;2023-08-30T04:34:38;7.05;;;4.68;;
54845;SDS011;53889;50.084;8.646;2023-08-30T04:37:05;9.30;;;4.90;;
54845;SDS011;53889;50.084;8.646;2023-08-30T04:39:32;8.43;;;5.20;;
54845;SDS011;53889;50.084;8.646;2023-08-30T04:41:58;7.47;;;5.00;;
54845;SDS011;53889;50.084;8.646;2023-08-30T04:44:27;7.40;;;4.70;;
54845;SDS011;53889;50.084;8.646;2023-08-30T04:46:54;7.95;;;5.10;;
54845;SDS011;53889;50.084;8.646;2023-08-30T04:49:23;9.32;;;5.45;;
54845;SDS011;53889;50.084;8.646;2023-08-30T04:51:50;7.90;;;5.10;;
54845;SDS011;53889;50.084;8.646;2023-08-30T04:54:17;8.52;;;6.20;;
54845;SDS011;53889;50.084;8.646;2023-08-30T04:56:43;9.25;;;6.25;;
54845;SDS011;53889;50.084;8.646;2023-08-30T04:59:11;6.72;;;4.95;;
54845;SDS011;53889;50.084;8.646;2023-08-30T05:01:41;8.00;;;5.57;;
54845;SDS011;53889;50.084;8.646;2023-08-30T05:04:09;7.70;;;5.30;;
54845;SDS011;53889;50.084;8.646;2023-08-30T05:06:38;8.65;;;5.50;;
54845;SDS011;53889;50.084;8.646;2023-08-30T05:09:04;8.35;;;5.30;;
54845;SDS011;53889;50.084;8.646;2023-08-30T05:11:31;7.28;;;5.22;;
54845;SDS011;53889;50.084;8.646;2023-08-30T05:13:58;8.15;;;4.97;;
54845;SDS011;53889;50.084;8.646;2023-08-30T05:16:25;9.10;;;5.63;;
54845;SDS011;53889;50.084;8.646;2023-08-30T05:18:52;6.25;;;5.15;;
54845;SDS011;53889;50.084;8.646;2023-08-30T05:21:19;5.75;;;4.60;;
54845;SDS011;53889;50.084;8.646;2023-08-30T05:23:47;11.13;;;5.10;;
54845;SDS011;53889;50.084;8.646;2023-08-30T05:26:14;6.43;;;4.65;;
54845;SDS011;53889;50.084;8.646;2023-08-30T05:28:41;8.00;;;4.85;;
54845;SDS011;53889;50.084;8.646;2023-08-30T05:31:08;8.23;;;4.50;;
54845;SDS011;53889;50.084;8.646;2023-08-30T05:33:53;6.93;;;5.10;;
54845;SDS011;53889;50.084;8.646;2023-08-30T05:36:43;7.85;;;5.20;;
54845;SDS011;53889;50.084;8.646;2023-08-30T05:39:22;7.20;;;4.57;;
54845;SDS011;53889;50.084;8.646;2023-08-30T05:41:55;10.23;;;6.37;;
54845;SDS011;53889;50.084;8.646;2023-08-30T05:44:21;7.95;;;5.95;;
54845;SDS011;53889;50.084;8.646;2023-08-30T05:46:48;9.20;;;5.85;;
54845;SDS011;53889;50.084;8.646;2023-08-30T05:49:15;7.65;;;5.55;;
54845;SDS011;53889;50.084;8.646;2023-08-30T05:51:43;6.50;;;5.05;;
54845;SDS011;53889;50.084;8.646;2023-08-30T05:54:11;7.95;;;5.32;;
54845;SDS011;53889;50.084;8.646;2023-08-30T05:56:39;7.00;;;4.78;;
54845;SDS011;53889;50.084;8.646;2023-08-30T05:59:07;7.57;;;4.53;;
54845;SDS011;53889;50.084;8.646;2023-08-30T06:01:33;7.90;;;4.68;;
54845;SDS011;53889;50.084;8.646;2023-08-30T06:04:00;10.85;;;5.63;;
54845;SDS011;53889;50.084;8.646;2023-08-30T06:06:29;6.78;;;5.32;;
54845;SDS011;53889;50.084;8.646;2023-08-30T06:08:56;12.27;;;6.50;;
54845;SDS011;53889;50.084;8.646;2023-08-30T06:11:23;8.55;;;5.40;;
54845;SDS011;53889;50.084;8.646;2023-08-30T06:13:51;12.48;;;5.90;;
54845;SDS011;53889;50.084;8.646;2023-08-30T06:16:18;9.02;;;5.45;;
54845;SDS011;53889;50.084;8.646;2023-08-30T06:18:45;10.10;;;6.35;;
54845;SDS011;53889;50.084;8.646;2023-08-30T06:21:12;9.82;;;5.30;;
54845;SDS011;53889;50.084;8.646;2023-08-30T06:23:38;7.82;;;5.80;;
54845;SDS011;53889;50.084;8.646;2023-08-30T06:26:05;8.10;;;4.90;;
54845;SDS011;53889;50.084;8.646;2023-08-30T06:28:32;6.68;;;5.20;;
54845;SDS011;53889;50.084;8.646;2023-08-30T06:31:00;8.85;;;5.80;;
54845;SDS011;53889;50.084;8.646;2023-08-30T06:33:26;7.07;;;4.80;;
54845;SDS011;53889;50.084;8.646;2023-08-30T06:35:53;7.40;;;5.40;;
54845;SDS011;53889;50.084;8.646;2023-08-30T06:38:21;6.47;;;4.38;;
54845;SDS011;53889;50.084;8.646;2023-08-30T06:40:48;7.18;;;4.22;;
54845;SDS011;53889;50.084;8.646;2023-08-30T06:43:15;8.90;;;5.25;;
54845;SDS011;53889;50.084;8.646;2023-08-30T06:45:41;7.32;;;5.22;;
54845;SDS011;53889;50.084;8.646;2023-08-30T06:48:09;7.57;;;5.72;;
54845;SDS011;53889;50.084;8.646;2023-08-30T06:50:36;10.15;;;6.00;;
54845;SDS011;53889;50.084;8.646;2023-08-30T06:53:03;9.52;;;5.97;;
54845;SDS011;53889;50.084;8.646;2023-08-30T06:55:30;14.32;;;6.85;;
54845;SDS011;53889;50.084;8.646;2023-08-30T06:57:58;9.55;;;5.70;;
54845;SDS011;53889;50.084;8.646;2023-08-30T07:00:25;8.90;;;5.90;;
54845;SDS011;53889;50.084;8.646;2023-08-30T07:02:53;7.38;;;5.68;;
54845;SDS011;53889;50.084;8.646;2023-08-30T07:05:21;7.53;;;5.07;;
54845;SDS011;53889;50.084;8.646;2023-08-30T07:07:48;9.70;;;5.70;;
54845;SDS011;53889;50.084;8.646;2023-08-30T07:10:15;8.63;;;5.55;;
54845;SDS011;53889;50.084;8.646;2023-08-30T07:12:42;8.68;;;5.78;;
54845;SDS011;53889;50.084;8.646;2023-08-30T07:15:10;8.52;;;5.30;;
54845;SDS011;53889;50.084;8.646;2023-08-30T07:17:37;8.82;;;5.82;;
54845;SDS011;53889;50.084;8.646;2023-08-30T07:20:06;8.10;;;6.03;;
54845;SDS011;53889;50.084;8.646;2023-08-30T07:22:35;7.97;;;6.10;;
54845;SDS011;53889;50.084;8.646;2023-08-30T07:25:02;10.93;;;6.45;;
54845;SDS011;53889;50.084;8.646;2023-08-30T07:27:29;11.18;;;6.95;;
54845;SDS011;53889;50.084;8.646;2023-08-30T07:29:56;8.43;;;6.97;;
54845;SDS011;53889;50.084;8.646;2023-08-30T07:32:22;8.00;;;7.03;;
54845;SDS011;53889;50.084;8.646;2023-08-30T07:34:49;9.18;;;7.38;;
54845;SDS011;53889;50.084;8.646;2023-08-30T07:37:17;8.90;;;6.60;;
54845;SDS011;53889;50.084;8.646;2023-08-30T07:39:46;8.23;;;7.18;;
54845;SDS011;53889;50.084;8.646;2023-08-30T07:42:13;9.57;;;7.00;;
54845;SDS011;53889;50.084;8.646;2023-08-30T07:44:40;10.05;;;7.63;;
54845;SDS011;53889;50.084;8.646;2023-08-30T07:47:08;10.52;;;7.88;;
54845;SDS011;53889;50.084;8.646;2023-08-30T07:49:35;11.98;;;9.38;;
54845;SDS011;53889;50.084;8.646;2023-08-30T07:52:01;12.70;;;9.68;;
54845;SDS011;53889;50.084;8.646;2023-08-30T07:54:29;13.65;;;11.32;;
54845;SDS011;53889;50.084;8.646;2023-08-30T07:56:58;12.27;;;9.95;;
54845;SDS011;53889;50.084;8.646;2023-08-30T07:59:25;11.85;;;10.00;;
54845;SDS011;53889;50.084;8.646;2023-08-30T08:01:51;10.82;;;9.40;;
54845;SDS011;53889;50.084;8.646;2023-08-30T08:04:18;9.95;;;8.95;;
54845;SDS011;53889;50.084;8.646;2023-08-30T08:06:45;9.88;;;8.70;;
54845;SDS011;53889;50.084;8.646;2023-08-30T08:09:12;9.52;;;8.00;;
54845;SDS011;53889;50.084;8.646;2023-08-30T08:11:39;11.40;;;8.10;;
54845;SDS011;53889;50.084;8.646;2023-08-30T08:14:09;8.98;;;6.72;;
54845;SDS011;53889;50.084;8.646;2023-08-30T08:16:37;7.70;;;6.13;;
54845;SDS011;53889;50.084;8.646;2023-08-30T08:19:04;9.20;;;6.50;;
54845;SDS011;53889;50.084;8.646;2023-08-30T08:21:32;6.60;;;5.43;;
54845;SDS011;53889;50.084;8.646;2023-08-30T08:23:59;7.40;;;5.80;;
54845;SDS011;53889;50.084;8.646;2023-08-30T08:26:25;6.82;;;6.03;;
54845;SDS011;53889;50.084;8.646;2023-08-30T08:28:53;9.10;;;6.35;;
54845;SDS011;53889;50.084;8.646;2023-08-30T08:31:21;9.15;;;5.97;;
54845;SDS011;53889;50.084;8.646;2023-08-30T08:33:50;9.18;;;6.28;;
54845;SDS011;53889;50.084;8.646;2023-08-30T08:36:18;6.78;;;5.55;;
54845;SDS011;53889;50.084;8.646;2023-08-30T08:38:45;7.40;;;5.63;;
54845;SDS011;53889;50.084;8.646;2023-08-30T08:41:12;7.28;;;4.72;;
54845;SDS011;53889;50.084;8.646;2023-08-30T08:43:41;7.28;;;4.75;;
54845;SDS011;53889;50.084;8.646;2023-08-30T08:46:09;7.10;;;4.32;;
54845;SDS011;53889;50.084;8.646;2023-08-30T08:48:40;6.35;;;4.70;;
54845;SDS011;53889;50.084;8.646;2023-08-30T08:51:09;8.35;;;4.78;;
54845;SDS011;53889;50.084;8.646;2023-08-30T08:53:36;6.00;;;4.70;;
54845;SDS011;53889;50.084;8.646;2023-08-30T08:56:04;6.65;;;5.15;;
54845;SDS011;53889;50.084;8.646;2023-08-30T08:58:33;6.57;;;5.10;;
54845;SDS011;53889;50.084;8.646;2023-08-30T09:01:02;6.30;;;4.90;;
54845;SDS011;53889;50.084;8.646;2023-08-30T09:03:30;6.35;;;5.10;;
54845;SDS011;53889;50.084;8.646;2023-08-30T09:06:00;5.95;;;5.00;;
54845;SDS011;53889;50.084;8.646;2023-08-30T09:08:28;6.40;;;4.80;;
54845;SDS011;53889;50.084;8.646;2023-08-30T09:10:55;9.27;;;5.95;;
54845;SDS011;53889;50.084;8.646;2023-08-30T09:13:22;5.85;;;4.80;;
54845;SDS011;53889;50.084;8.646;2023-08-30T09:15:48;7.20;;;4.90;;
54845;SDS011;53889;50.084;8.646;2023-08-30T09:18:15;5.75;;;4.40;;
54845;SDS011;53889;50.084;8.646;2023-08-30T09:20:42;7.05;;;4.10;;
54845;SDS011;53889;50.084;8.646;2023-08-30T09:23:17;6.40;;;4.30;;
54845;SDS011;53889;50.084;8.646;2023-08-30T09:25:45;5.45;;;4.30;;
54845;SDS011;53889;50.084;8.646;2023-08-30T09:28:12;6.93;;;4.57;;
54845;SDS011;53889;50.084;8.646;2023-08-30T09:30:39;6.57;;;4.65;;
54845;SDS011;53889;50.084;8.646;2023-08-30T09:33:05;6.25;;;4.10;;
54845;SDS011;53889;50.084;8.646;2023-08-30T09:35:32;5.82;;;4.10;;
54845;SDS011;53889;50.084;8.646;2023-08-30T09:38:16;6.43;;;3.75;;
54845;SDS011;53889;50.084;8.646;2023-08-30T09:40:44;5.55;;;4.07;;
54845;SDS011;53889;50.084;8.646;2023-08-30T09:43:10;5.28;;;3.83;;
54845;SDS011;53889;50.084;8.646;2023-08-30T09:45:38;4.85;;;3.63;;
54845;SDS011;53889;50.084;8.646;2023-08-30T09:48:05;5.80;;;4.22;;
54845;SDS011;53889;50.084;8.646;2023-08-30T09:50:33;5.28;;;4.25;;
54845;SDS011;53889;50.084;8.646;2023-08-30T09:53:02;6.25;;;3.42;;
54845;SDS011;53889;50.084;8.646;2023-08-30T09:55:33;6.03;;;4.13;;
54845;SDS011;53889;50.084;8.646;2023-08-30T09:58:01;4.68;;;3.45;;
54845;SDS011;53889;50.084;8.646;2023-08-30T10:00:29;4.15;;;3.38;;
54845;SDS011;53889;50.084;8.646;2023-08-30T10:02:57;5.30;;;3.97;;
54845;SDS011;53889;50.084;8.646;2023-08-30T10:05:25;5.53;;;3.80;;
54845;SDS011;53889;50.084;8.646;2023-08-30T10:07:53;5.40;;;4.05;;
54845;SDS011;53889;50.084;8.646;2023-08-30T10:10:20;4.75;;;3.88;;
54845;SDS011;53889;50.084;8.646;2023-08-30T10:12:48;5.70;;;3.80;;
54845;SDS011;53889;50.084;8.646;2023-08-30T10:15:16;4.97;;;3.72;;
54845;SDS011;53889;50.084;8.646;2023-08-30T10:17:44;5.32;;;3.63;;
54845;SDS011;53889;50.084;8.646;2023-08-30T10:20:12;6.78;;;3.25;;
54845;SDS011;53889;50.084;8.646;2023-08-30T10:22:39;5.25;;;3.22;;
54845;SDS011;53889;50.084;8.646;2023-08-30T10:25:08;4.72;;;3.15;;
54845;SDS011;53889;50.084;8.646;2023-08-30T10:27:41;4.95;;;2.92;;
54845;SDS011;53889;50.084;8.646;2023-08-30T10:30:12;4.57;;;2.90;;
54845;SDS011;53889;50.084;8.646;2023-08-30T10:32:40;3.97;;;2.97;;
54845;SDS011;53889;50.084;8.646;2023-08-30T10:35:10;5.20;;;3.10;;
54845;SDS011;53889;50.084;8.646;2023-08-30T10:37:38;4.45;;;2.78;;
54845;SDS011;53889;50.084;8.646;2023-08-30T10:40:05;4.78;;;3.10;;
54845;SDS011;53889;50.084;8.646;2023-08-30T10:42:33;4.90;;;2.50;;
54845;SDS011;53889;50.084;8.646;2023-08-30T10:45:00;3.75;;;2.58;;
54845;SDS011;53889;50.084;8.646;2023-08-30T10:47:32;4.50;;;2.22;;
54845;SDS011;53889;50.084;8.646;2023-08-30T10:50:04;3.20;;;2.03;;
54845;SDS011;53889;50.084;8.646;2023-08-30T10:52:33;3.45;;;2.20;;
54845;SDS011;53889;50.084;8.646;2023-08-30T10:55:06;3.30;;;2.17;;
54845;SDS011;53889;50.084;8.646;2023-08-30T10:57:34;4.13;;;2.15;;
54845;SDS011;53889;50.084;8.646;2023-08-30T11:00:04;3.35;;;2.42;;
54845;SDS011;53889;50.084;8.646;2023-08-30T11:02:34;4.05;;;2.80;;
54845;SDS011;53889;50.084;8.646;2023-08-30T11:05:02;3.58;;;2.30;;
54845;SDS011;53889;50.084;8.646;2023-08-30T11:07:29;4.00;;;2.33;;
54845;SDS011;53889;50.084;8.646;2023-08-30T11:09:57;3.90;;;2.40;;
54845;SDS011;53889;50.084;8.646;2023-08-30T11:12:24;4.65;;;2.70;;
54845;SDS011;53889;50.084;8.646;2023-08-30T11:14:52;3.97;;;2.22;;
54845;SDS011;53889;50.084;8.646;2023-08-30T11:17:19;3.83;;;1.92;;
54845;SDS011;53889;50.084;8.646;2023-08-30T11:19:49;3.08;;;2.00;;
54845;SDS011;53889;50.084;8.646;2023-08-30T11:22:16;2.78;;;2.00;;
54845;SDS011;53889;50.084;8.646;2023-08-30T11:24:46;3.28;;;2.22;;
54845;SDS011;53889;50.084;8.646;2023-08-30T11:27:13;3.30;;;2.10;;
54845;SDS011;53889;50.084;8.646;2023-08-30T11:29:43;3.08;;;2.13;;
54845;SDS011;53889;50.084;8.646;2023-08-30T11:32:09;4.65;;;2.08;;
54845;SDS011;53889;50.084;8.646;2023-08-30T11:34:36;3.38;;;2.20;;
54845;SDS011;53889;50.084;8.646;2023-08-30T11:37:04;3.72;;;2.10;;
54845;SDS011;53889;50.084;8.646;2023-08-30T11:39:31;4.95;;;2.35;;
54845;SDS011;53889;50.084;8.646;2023-08-30T11:41:58;4.28;;;2.75;;
54845;SDS011;53889;50.084;8.646;2023-08-30T11:44:28;4.28;;;2.00;;
54845;SDS011;53889;50.084;8.646;2023-08-30T11:46:58;4.18;;;2.20;;
54845;SDS011;53889;50.084;8.646;2023-08-30T11:49:25;3.83;;;2.10;;
54845;SDS011;53889;50.084;8.646;2023-08-30T11:51:52;4.50;;;2.10;;
54845;SDS011;53889;50.084;8.646;2023-08-30T11:54:22;3.15;;;1.80;;
54845;SDS011;53889;50.084;8.646;2023-08-30T11:56:50;2.55;;;1.60;;
54845;SDS011;53889;50.084;8.646;2023-08-30T11:59:20;3.22;;;1.70;;
54845;SDS011;53889;50.084;8.646;2023-08-30T12:01:47;3.00;;;1.60;;
54845;SDS011;53889;50.084;8.646;2023-08-30T12:04:14;3.00;;;2.03;;
54845;SDS011;53889;50.084;8.646;2023-08-30T12:06:43;3.20;;;1.70;;
54845;SDS011;53889;50.084;8.646;2023-08-30T12:09:11;3.28;;;1.80;;
54845;SDS011;53889;50.084;8.646;2023-08-30T12:11:39;2.58;;;1.70;;
54845;SDS011;53889;50.084;8.646;2023-08-30T12:14:06;3.05;;;1.70;;
54845;SDS011;53889;50.084;8.646;2023-08-30T12:16:33;2.42;;;1.88;;
54845;SDS011;53889;50.084;8.646;2023-08-30T12:19:08;4.50;;;1.95;;
54845;SDS011;53889;50.084;8.646;2023-08-30T12:21:40;3.25;;;1.92;;
54845;SDS011;53889;50.084;8.646;2023-08-30T12:24:07;2.95;;;2.17;;
54845;SDS011;53889;50.084;8.646;2023-08-30T12:26:34;4.05;;;2.20;;
54845;SDS011;53889;50.084;8.646;2023-08-30T12:29:04;4.50;;;1.90;;
54845;SDS011;53889;50.084;8.646;2023-08-30T12:31:32;4.03;;;2.25;;
54845;SDS011;53889;50.084;8.646;2023-08-30T12:33:58;3.75;;;2.40;;
54845;SDS011;53889;50.084;8.646;2023-08-30T12:36:25;4.68;;;2.20;;
54845;SDS011;53889;50.084;8.646;2023-08-30T12:38:52;3.38;;;2.20;;
54845;SDS011;53889;50.084;8.646;2023-08-30T12:41:19;2.92;;;2.20;;
54845;SDS011;53889;50.084;8.646;2023-08-30T12:43:48;5.30;;;2.42;;
54845;SDS011;53889;50.084;8.646;2023-08-30T12:46:16;3.75;;;2.13;;
54845;SDS011;53889;50.084;8.646;2023-08-30T12:48:43;3.38;;;2.60;;
54845;SDS011;53889;50.084;8.646;2023-08-30T12:51:09;5.32;;;2.13;;
54845;SDS011;53889;50.084;8.646;2023-08-30T12:53:37;4.05;;;2.65;;
54845;SDS011;53889;50.084;8.646;2023-08-30T12:56:03;2.80;;;1.85;;
54845;SDS011;53889;50.084;8.646;2023-08-30T12:58:30;3.92;;;2.00;;
54845;SDS011;53889;50.084;8.646;2023-08-30T13:00:57;3.70;;;2.00;;
54845;SDS011;53889;50.084;8.646;2023-08-30T13:03:25;4.60;;;2.10;;
54845;SDS011;53889;50.084;8.646;2023-08-30T13:05:52;5.05;;;2.08;;
54845;SDS011;53889;50.084;8.646;2023-08-30T13:08:18;3.15;;;1.98;;
54845;SDS011;53889;50.084;8.646;2023-08-30T13:10:45;3.30;;;1.90;;
54845;SDS011;53889;50.084;8.646;2023-08-30T13:13:12;4.05;;;2.13;;
54845;SDS011;53889;50.084;8.646;2023-08-30T13:15:39;3.85;;;2.10;;
54845;SDS011;53889;50.084;8.646;2023-08-30T13:18:06;4.07;;;2.30;;
54845;SDS011;53889;50.084;8.646;2023-08-30T13:20:38;2.92;;;2.00;;
54845;SDS011;53889;50.084;8.646;2023-08-30T13:23:05;4.05;;;2.50;;
54845;SDS011;53889;50.084;8.646;2023-08-30T13:25:32;4.30;;;2.45;;
54845;SDS011;53889;50.084;8.646;2023-08-30T13:27:58;4.25;;;2.50;;
54845;SDS011;53889;50.084;8.646;2023-08-30T13:30:25;3.85;;;2.38;;
54845;SDS011;53889;50.084;8.646;2023-08-30T13:32:52;4.22;;;2.50;;
54845;SDS011;53889;50.084;8.646;2023-08-30T13:35:18;5.38;;;2.70;;
54845;SDS011;53889;50.084;8.646;2023-08-30T13:37:46;4.78;;;2.60;;
54845;SDS011;53889;50.084;8.646;2023-08-30T13:40:13;3.78;;;2.47;;
54845;SDS011;53889;50.084;8.646;2023-08-30T13:42:40;4.95;;;2.83;;
54845;SDS011;53889;50.084;8.646;2023-08-30T13:45:07;4.28;;;2.63;;
54845;SDS011;53889;50.084;8.646;2023-08-30T13:47:35;5.90;;;3.20;;
54845;SDS011;53889;50.084;8.646;2023-08-30T13:50:02;4.10;;;2.67;;
54845;SDS011;53889;50.084;8.646;2023-08-30T13:52:30;4.60;;;2.97;;
54845;SDS011;53889;50.084;8.646;2023-08-30T13:54:59;4.32;;;2.90;;
54845;SDS011;53889;50.084;8.646;2023-08-30T13:57:26;4.45;;;2.80;;
54845;SDS011;53889;50.084;8.646;2023-08-30T13:59:53;5.75;;;3.03;;
54845;SDS011;53889;50.084;8.646;2023-08-30T14:02:20;4.82;;;2.95;;
54845;SDS011;53889;50.084;8.646;2023-08-30T14:04:46;3.60;;;2.40;;
54845;SDS011;53889;50.084;8.646;2023-08-30T14:07:14;6.80;;;2.97;;
54845;SDS011;53889;50.084;8.646;2023-08-30T14:09:41;3.85;;;2.40;;
54845;SDS011;53889;50.084;8.646;2023-08-30T14:12:09;6.93;;;4.63;;
54845;SDS011;53889;50.084;8.646;2023-08-30T14:14:36;6.20;;;3.60;;
54845;SDS011;53889;50.084;8.646;2023-08-30T14:17:03;4.88;;;2.90;;
54845;SDS011;53889;50.084;8.646;2023-08-30T14:19:29;4.20;;;3.10;;
54845;SDS011;53889;50.084;8.646;2023-08-30T14:21:56;5.88;;;2.75;;
54845;SDS011;53889;50.084;8.646;2023-08-30T14:24:23;5.10;;;2.95;;
54845;SDS011;53889;50.084;8.646;2023-08-30T14:26:50;4.13;;;2.63;;
54845;SDS011;53889;50.084;8.646;2023-08-30T14:29:19;3.63;;;2.70;;
54845;SDS011;53889;50.084;8.646;2023-08-30T14:31:47;5.55;;;4.60;;
54845;SDS011;53889;50.084;8.646;2023-08-30T14:34:14;5.82;;;2.97;;
54845;SDS011;53889;50.084;8.646;2023-08-30T14:36:41;4.88;;;2.60;;
54845;SDS011;53889;50.084;8.646;2023-08-30T14:39:08;5.35;;;2.72;;
54845;SDS011;53889;50.084;8.646;2023-08-30T14:41:35;5.93;;;2.72;;
54845;SDS011;53889;50.084;8.646;2023-08-30T14:44:03;5.80;;;2.50;;
54845;SDS011;53889;50.084;8.646;2023-08-30T14:46:31;4.68;;;2.35;;
54845;SDS011;53889;50.084;8.646;2023-08-30T14:48:58;5.38;;;3.53;;
54845;SDS011;53889;50.084;8.646;2023-08-30T14:51:25;6.65;;;2.95;;